Time;durP1;ratioP1;P1;durP2;ratioP2;P2;SDS_P1;SDS_P2;PMS_P1;PMS_P2;Temp;Humidity;BMP_temperature;BMP_pressure;BME280_temperature;BME280_humidity;BME280_pressure;Samples;Min_cycle;Max_cycle;Signal;HPM_P1;HPM_P2
2023/05/24 00:01:06;;;;;;;0.00;0.00;;;;;;;11.68;65.33;101417.69;6088399;23;20018;-75
2023/05/24 00:03:33;;;;;;;0.00;0.00;;;;;;;11.66;65.88;101421.75;6067136;23;20014;-76
2023/05/24 00:06:02;;;;;;;0.00;0.00;;;;;;;11.63;65.45;101423.06;6087048;23;20064;-75
2023/05/24 00:08:28;;;;;;;0.00;0.00;;;;;;;11.60;65.43;101423.56;6114111;23;20010;-76
2023/05/24 00:10:53;;;;;;;0.00;0.00;;;;;;;11.58;66.00;101419.41;6109613;23;20041;-75
2023/05/24 00:13:19;;;;;;;0.00;0.00;;;;;;;11.55;65.97;101411.69;6113958;23;20476;-75
2023/05/24 00:15:44;;;;;;;0.00;0.00;;;;;;;11.52;66.41;101415.75;6084864;23;20018;-75
2023/05/24 00:18:10;;;;;;;0.00;0.00;;;;;;;11.46;66.78;101414.00;6087692;23;20018;-75
2023/05/24 00:20:35;;;;;;;0.00;0.00;;;;;;;11.42;67.20;101410.09;6089936;23;20014;-76
2023/05/24 00:23:01;;;;;;;0.00;0.00;;;;;;;11.34;67.61;101403.94;6229627;22;20018;-77
2023/05/24 00:25:26;;;;;;;0.00;0.00;;;;;;;11.32;67.52;101399.81;6144057;23;20358;-76
2023/05/24 00:27:51;;;;;;;0.00;0.00;;;;;;;11.27;68.34;101407.94;6139410;23;20098;-76
2023/05/24 00:30:17;;;;;;;0.00;0.00;;;;;;;11.20;68.13;101410.84;6273863;22;20009;-76
2023/05/24 00:32:42;;;;;;;0.00;0.00;;;;;;;11.15;68.63;101406.09;6140546;23;20059;-77
2023/05/24 00:35:08;;;;;;;0.00;0.00;;;;;;;11.08;68.98;101399.09;6247299;22;20014;-77
2023/05/24 00:37:33;;;;;;;0.00;0.00;;;;;;;10.98;69.41;101392.38;6144742;23;20010;-75
2023/05/24 00:39:59;;;;;;;0.00;0.00;;;;;;;10.98;69.69;101399.75;6268990;22;20450;-76
2023/05/24 00:42:24;;;;;;;0.00;0.00;;;;;;;10.92;70.28;101401.56;6144217;22;20014;-77
2023/05/24 00:44:50;;;;;;;0.00;0.00;;;;;;;10.89;70.20;101407.50;6242848;22;20468;-76
2023/05/24 00:47:15;;;;;;;0.00;0.00;;;;;;;10.79;70.32;101390.91;6144638;23;20348;-77
2023/05/24 00:49:41;;;;;;;0.00;0.00;;;;;;;10.79;70.52;101402.69;6140938;23;20092;-77
2023/05/24 00:52:07;;;;;;;0.00;0.00;;;;;;;10.73;71.17;101397.34;6142898;23;20096;-76
2023/05/24 00:54:33;;;;;;;0.00;0.00;;;;;;;10.71;70.78;101399.50;6144366;23;20005;-76
2023/05/24 00:56:59;;;;;;;0.00;0.00;;;;;;;10.62;71.11;101391.69;6115905;23;20072;-76
2023/05/24 00:59:25;;;;;;;0.08;0.08;;;;;;;10.61;71.13;101395.47;6118524;23;20074;-75
2023/05/24 01:01:51;;;;;;;0.00;0.00;;;;;;;10.58;70.95;101395.16;6144100;23;20009;-78
2023/05/24 01:04:19;;;;;;;0.00;0.00;;;;;;;10.58;71.04;101395.16;6138630;23;20013;-77
2023/05/24 01:07:12;;;;;;;0.00;0.00;;;;;;;10.55;71.33;101385.50;6143472;23;20387;-78
2023/05/24 01:09:40;;;;;;;0.00;0.00;;;;;;;10.56;71.52;101383.63;6144173;23;20028;-75
2023/05/24 01:12:33;;;;;;;0.00;0.00;;;;;;;10.52;71.62;101388.72;6143935;23;20009;-75
2023/05/24 01:15:09;;;;;;;0.00;0.00;;;;;;;10.49;71.40;101386.50;6143482;23;20080;-76
2023/05/24 01:18:00;;;;;;;0.00;0.00;;;;;;;10.43;71.67;101388.28;6141572;23;20009;-76
2023/05/24 01:20:29;;;;;;;0.00;0.00;;;;;;;10.37;71.79;101385.69;6143291;23;20014;-77
2023/05/24 01:23:13;;;;;;;0.00;0.00;;;;;;;10.34;71.93;101386.16;6138208;23;20642;-75
2023/05/24 01:25:51;;;;;;;0.00;0.00;;;;;;;10.27;71.73;101384.34;6143923;23;20048;-76
2023/05/24 01:28:17;;;;;;;0.00;0.00;;;;;;;10.16;71.73;101371.53;6141603;23;20374;-74
2023/05/24 01:30:43;;;;;;;0.00;0.00;;;;;;;10.17;71.85;101389.59;6143923;23;20017;-75
2023/05/24 01:33:09;;;;;;;0.00;0.00;;;;;;;10.21;71.93;101385.31;6137482;23;20013;-75
2023/05/24 01:35:39;;;;;;;0.00;0.00;;;;;;;10.26;71.93;101393.63;6143864;23;20424;-75
2023/05/24 01:38:05;;;;;;;0.00;0.00;;;;;;;10.33;71.95;101392.69;6261205;22;20514;-75
2023/05/24 01:40:32;;;;;;;0.00;0.00;;;;;;;10.33;71.56;101384.47;6272963;22;20017;-76
2023/05/24 01:43:11;;;;;;;0.10;0.10;;;;;;;10.33;71.52;101387.22;6140334;23;20332;-76
2023/05/24 01:45:57;;;;;;;0.00;0.00;;;;;;;10.35;71.75;101396.84;6143126;23;20013;-75
2023/05/24 01:48:38;;;;;;;0.00;0.00;;;;;;;10.31;71.26;101385.53;6139555;23;20004;-76
2023/05/24 01:51:10;;;;;;;0.00;0.00;;;;;;;10.24;71.72;101390.31;6142826;23;20009;-76
2023/05/24 01:53:43;;;;;;;0.00;0.00;;;;;;;10.21;71.85;101384.50;6240832;22;20108;-76
2023/05/24 01:56:10;;;;;;;0.00;0.00;;;;;;;10.12;71.90;101389.50;6141808;23;20270;-76
2023/05/24 01:58:38;;;;;;;0.00;0.00;;;;;;;10.05;71.63;101395.09;6143921;23;20001;-76
2023/05/24 02:01:03;;;;;;;0.00;0.00;;;;;;;9.98;71.97;101391.63;6142335;23;20005;-75
2023/05/24 02:03:30;;;;;;;0.00;0.00;;;;;;;9.86;72.30;101388.91;6246809;22;20435;-76
2023/05/24 02:05:55;;;;;;;0.00;0.00;;;;;;;9.80;72.45;101378.94;6137521;23;20017;-76
2023/05/24 02:08:21;;;;;;;0.00;0.00;;;;;;;9.79;72.85;101385.47;6245839;22;20064;-76
2023/05/24 02:10:47;;;;;;;0.00;0.00;;;;;;;9.78;73.25;101392.00;6243800;22;20028;-75
2023/05/24 02:13:12;;;;;;;0.00;0.00;;;;;;;9.71;73.25;101385.81;6142277;23;20009;-76
2023/05/24 02:15:40;;;;;;;0.00;0.00;;;;;;;9.76;73.21;101399.59;6142068;23;20043;-74
2023/05/24 02:18:06;;;;;;;0.00;0.00;;;;;;;9.77;72.69;101395.81;6142641;23;20012;-75
2023/05/24 02:20:35;;;;;;;0.00;0.00;;;;;;;9.81;73.32;101402.44;6142533;23;20013;-76
2023/05/24 02:23:04;;;;;;;0.00;0.00;;;;;;;9.75;73.11;101387.00;6113108;23;20044;-75
2023/05/24 02:25:30;;;;;;;0.00;0.00;;;;;;;9.76;73.03;101388.69;6144673;23;20017;-76
2023/05/24 02:27:57;;;;;;;0.00;0.00;;;;;;;9.76;73.35;101383.22;6137944;23;20015;-75
2023/05/24 02:30:22;;;;;;;0.05;0.05;;;;;;;9.80;72.87;101389.88;6142752;23;20065;-76
2023/05/24 02:32:48;;;;;;;0.00;0.00;;;;;;;9.76;73.10;101383.22;6139563;23;19998;-75
2023/05/24 02:35:13;;;;;;;0.00;0.00;;;;;;;9.74;73.55;101385.38;6274001;22;20010;-75
2023/05/24 02:37:39;;;;;;;0.00;0.00;;;;;;;9.67;73.42;101377.28;6275343;22;20150;-75
2023/05/24 02:40:05;;;;;;;0.00;0.00;;;;;;;9.75;73.53;101378.81;6140030;23;20014;-75
2023/05/24 02:42:31;;;;;;;0.00;0.00;;;;;;;9.79;73.94;101385.47;6247532;22;20012;-75
2023/05/24 02:44:56;;;;;;;0.00;0.00;;;;;;;9.77;74.07;101390.34;6140113;23;20009;-75
2023/05/24 02:47:21;;;;;;;0.10;0.10;;;;;;;9.78;73.93;101381.06;6146387;23;20001;-75
2023/05/24 02:49:47;;;;;;;0.00;0.00;;;;;;;9.78;74.43;101392.00;6271065;22;19997;-76
2023/05/24 02:52:20;;;;;;;0.00;0.00;;;;;;;9.75;74.44;101384.28;6273964;22;20020;-75
2023/05/24 02:54:46;;;;;;;0.05;0.05;;;;;;;9.75;74.55;101387.00;6145802;23;20062;-75
2023/05/24 02:57:11;;;;;;;0.00;0.00;;;;;;;9.75;75.17;101389.75;6218985;23;20455;-74
2023/05/24 02:59:37;;;;;;;0.00;0.00;;;;;;;9.70;75.14;101384.16;6143158;23;20040;-74
2023/05/24 03:02:02;;;;;;;0.00;0.00;;;;;;;9.71;75.38;101392.13;6275035;22;20038;-75
2023/05/24 03:04:27;;;;;;;0.10;0.10;;;;;;;9.69;75.74;101382.50;6142605;23;20009;-75
2023/05/24 03:06:53;;;;;;;0.00;0.00;;;;;;;9.71;75.26;101383.09;6250350;22;20013;-76
2023/05/24 03:09:18;;;;;;;0.00;0.00;;;;;;;9.70;75.46;101373.25;6142704;23;20029;-74
2023/05/24 03:11:44;;;;;;;0.00;0.00;;;;;;;9.72;75.46;101382.03;6148089;23;20147;-75
2023/05/24 03:14:09;;;;;;;0.00;0.00;;;;;;;9.71;75.56;101383.09;6144016;23;20005;-75
2023/05/24 03:16:35;;;;;;;0.00;0.00;;;;;;;9.64;75.67;101374.16;6149600;23;20005;-74
2023/05/24 03:19:01;;;;;;;0.00;0.00;;;;;;;9.64;75.81;101380.47;6148804;23;20434;-75
2023/05/24 03:21:26;;;;;;;0.00;0.00;;;;;;;9.61;76.01;101381.78;6141020;23;20025;-76
2023/05/24 03:23:52;;;;;;;0.00;0.00;;;;;;;9.52;75.83;101372.28;6143050;23;20051;-76
2023/05/24 03:26:17;;;;;;;0.00;0.00;;;;;;;9.55;75.74;101377.25;6117304;23;20027;-76
2023/05/24 03:28:44;;;;;;;0.00;0.00;;;;;;;9.44;76.31;101364.44;6142877;23;20140;-74
2023/05/24 03:31:10;;;;;;;0.00;0.00;;;;;;;9.43;76.59;101376.41;6141624;23;20006;-74
2023/05/24 03:33:35;;;;;;;0.00;0.00;;;;;;;9.34;76.75;101381.38;6117956;23;20099;-75
2023/05/24 03:36:03;;;;;;;0.00;0.00;;;;;;;9.28;76.52;101373.31;6274359;22;20327;-75
2023/05/24 03:38:28;;;;;;;0.00;0.00;;;;;;;9.27;76.84;101380.63;6268086;22;20088;-75
2023/05/24 03:40:53;;;;;;;0.00;0.00;;;;;;;9.20;76.52;101377.19;6122023;22;20033;-75
2023/05/24 03:43:20;;;;;;;0.00;0.00;;;;;;;9.16;76.59;101374.09;6248796;22;20005;-75
2023/05/24 03:45:47;;;;;;;0.00;0.00;;;;;;;9.20;76.64;101378.03;6269155;22;20018;-76
2023/05/24 03:48:13;;;;;;;0.00;0.00;;;;;;;9.20;76.98;101380.75;6247453;22;20005;-75
2023/05/24 03:50:38;;;;;;;0.00;0.00;;;;;;;9.20;77.00;101386.22;6145508;23;20009;-75
2023/05/24 03:53:04;;;;;;;0.00;0.00;;;;;;;9.20;76.52;101382.63;6143765;23;20360;-76
2023/05/24 03:55:29;;;;;;;0.00;0.00;;;;;;;9.20;76.75;101386.22;6143998;23;20025;-75
2023/05/24 03:57:55;;;;;;;0.08;0.08;;;;;;;9.19;76.16;101390.00;6144226;23;20383;-76
2023/05/24 04:00:20;;;;;;;0.00;0.00;;;;;;;9.16;76.25;101384.19;6142009;23;20418;-76
2023/05/24 04:02:46;;;;;;;0.00;0.00;;;;;;;9.18;76.07;101388.34;6246594;22;20020;-75
2023/05/24 04:05:12;;;;;;;0.00;0.00;;;;;;;9.15;75.75;101386.06;6271450;22;20436;-75
2023/05/24 04:07:38;;;;;;;0.00;0.00;;;;;;;9.07;75.72;101395.44;6141590;23;20013;-75
2023/05/24 04:10:05;;;;;;;0.00;0.00;;;;;;;8.99;75.79;101400.38;6145712;23;20063;-75
2023/05/24 04:12:31;;;;;;;0.00;0.00;;;;;;;8.95;76.65;101393.72;6269345;22;20005;-78
2023/05/24 04:14:57;;;;;;;0.00;0.00;;;;;;;8.91;76.30;101394.19;6144665;23;20008;-75
2023/05/24 04:17:23;;;;;;;0.00;0.00;;;;;;;8.90;76.58;101397.97;6139001;23;20021;-75
2023/05/24 04:19:52;;;;;;;0.00;0.00;;;;;;;8.91;76.23;101394.19;6143661;22;20012;-75
2023/05/24 04:22:18;;;;;;;0.00;0.00;;;;;;;8.95;76.04;101393.72;6268152;22;20313;-77
2023/05/24 04:24:44;;;;;;;0.00;0.00;;;;;;;9.07;75.72;101405.53;6142209;23;20761;-75
2023/05/24 04:27:10;;;;;;;0.00;0.00;;;;;;;9.15;75.30;101399.72;6144483;23;20012;-75
2023/05/24 04:29:36;;;;;;;0.00;0.00;;;;;;;9.26;74.60;101400.84;6116261;23;20100;-75
2023/05/24 04:32:01;;;;;;;0.00;0.00;;;;;;;9.36;74.59;101408.44;6119421;23;20010;-76
2023/05/24 04:34:32;;;;;;;0.00;0.00;;;;;;;9.43;73.69;101403.72;6141554;23;20021;-75
2023/05/24 04:36:59;;;;;;;0.00;0.00;;;;;;;9.54;73.58;101397.44;6271042;22;20013;-75
2023/05/24 04:39:25;;;;;;;0.00;0.00;;;;;;;9.61;72.93;101400.06;6140931;23;20062;-75
2023/05/24 04:41:51;;;;;;;0.00;0.00;;;;;;;9.71;72.64;101391.28;6143666;23;20005;-75
2023/05/24 04:44:18;;;;;;;0.00;0.00;;;;;;;9.81;72.05;101380.59;6145225;23;20367;-75
2023/05/24 04:46:43;;;;;;;0.00;0.00;;;;;;;9.91;71.80;101386.28;6267740;22;20136;-75
2023/05/24 04:49:09;;;;;;;0.00;0.00;;;;;;;10.00;71.62;101386.75;6143455;23;20096;-76
2023/05/24 04:51:37;;;;;;;0.10;0.10;;;;;;;10.08;71.19;101386.41;6141128;23;20014;-75
2023/05/24 04:54:07;;;;;;;0.00;0.00;;;;;;;10.14;70.67;101379.97;6144022;23;20009;-75
2023/05/24 04:56:33;;;;;;;0.00;0.00;;;;;;;10.20;70.47;101378.19;6116357;23;20381;-76
2023/05/24 04:58:59;;;;;;;0.00;0.00;;;;;;;10.34;69.84;101384.28;6118935;23;20013;-75
2023/05/24 05:01:24;;;;;;;0.00;0.00;;;;;;;10.43;69.89;101380.06;6143865;23;20112;-74
2023/05/24 05:03:50;;;;;;;0.00;0.00;;;;;;;10.54;69.64;101394.81;6114181;23;20079;-75
2023/05/24 05:06:15;;;;;;;0.00;0.00;;;;;;;10.61;69.58;101398.22;6272199;22;20013;-76
2023/05/24 05:08:41;;;;;;;0.00;0.00;;;;;;;10.72;69.40;101396.53;6113838;23;20009;-76
2023/05/24 05:11:06;;;;;;;0.10;0.10;;;;;;;10.78;69.31;101392.00;6273322;22;20014;-76
2023/05/24 05:13:31;;;;;;;0.00;0.00;;;;;;;10.90;69.63;101403.72;6270146;22;20059;-76
2023/05/24 05:15:57;;;;;;;0.00;0.00;;;;;;;10.93;69.20;101397.75;6274182;22;20017;-76
2023/05/24 05:18:22;;;;;;;0.00;0.00;;;;;;;11.04;68.61;101411.63;6248096;22;20025;-76
2023/05/24 05:20:48;;;;;;;0.00;0.00;;;;;;;10.95;69.20;101383.81;6139128;23;20089;-76
2023/05/24 05:23:13;;;;;;;0.00;0.00;;;;;;;11.06;68.66;101398.53;6144966;23;20401;-76
2023/05/24 05:25:39;;;;;;;0.00;0.00;;;;;;;11.05;69.47;101392.22;6139691;23;20018;-75
2023/05/24 05:28:07;;;;;;;0.00;0.00;;;;;;;11.05;69.39;101400.41;6143211;23;20005;-77
2023/05/24 05:30:32;;;;;;;0.00;0.00;;;;;;;11.03;69.55;101386.16;6140795;23;20008;-77
2023/05/24 05:32:58;;;;;;;0.00;0.00;;;;;;;11.11;69.73;101398.63;6142628;23;20009;-77
2023/05/24 05:35:23;;;;;;;0.00;0.00;;;;;;;11.11;70.44;101398.63;6144259;23;20009;-76
2023/05/24 05:37:58;;;;;;;0.00;0.00;;;;;;;11.08;70.32;101385.41;6217626;23;20002;-74
2023/05/24 05:40:26;;;;;;;0.00;0.00;;;;;;;11.18;70.20;101389.19;6146144;23;20029;-77
2023/05/24 05:42:51;;;;;;;0.00;0.00;;;;;;;11.22;70.55;101384.03;6267611;22;20032;-76
2023/05/24 05:45:17;;;;;;;0.00;0.00;;;;;;;11.36;70.69;101406.47;6143485;23;20009;-76
2023/05/24 05:47:42;;;;;;;0.00;0.00;;;;;;;11.42;70.63;101410.09;6142381;23;20024;-76
2023/05/24 05:50:08;;;;;;;0.00;0.00;;;;;;;11.43;70.72;101395.34;6267826;22;20010;-75
2023/05/24 05:52:33;;;;;;;0.00;0.00;;;;;;;11.50;70.75;101407.78;6144453;23;20033;-75
2023/05/24 05:54:59;;;;;;;0.00;0.00;;;;;;;11.52;70.58;101410.28;6138590;22;20017;-76
2023/05/24 05:57:25;;;;;;;0.00;0.00;;;;;;;11.53;70.48;101398.25;6246634;22;20477;-75
2023/05/24 05:59:50;;;;;;;0.00;0.00;;;;;;;11.58;70.41;101389.28;6140397;23;20433;-74
2023/05/24 06:02:17;;;;;;;0.00;0.00;;;;;;;11.68;70.37;101403.13;6142638;23;20033;-76
2023/05/24 06:04:44;;;;;;;0.00;0.00;;;;;;;11.73;70.10;101394.19;6144415;23;20005;-76
2023/05/24 06:07:09;;;;;;;0.00;0.00;;;;;;;11.81;69.78;101396.50;6139739;23;20313;-75
2023/05/24 06:09:35;;;;;;;0.00;0.00;;;;;;;11.87;70.26;101395.47;6143724;23;20016;-75
2023/05/24 06:12:00;;;;;;;0.00;0.00;;;;;;;11.96;69.82;101394.03;6137976;23;20109;-74
2023/05/24 06:14:26;;;;;;;0.00;0.00;;;;;;;12.04;69.39;101400.97;6274737;22;20010;-75
2023/05/24 06:16:53;;;;;;;0.00;0.00;;;;;;;12.12;69.24;101395.09;6141503;23;20455;-74
2023/05/24 06:19:19;;;;;;;0.00;0.00;;;;;;;12.34;69.50;101400.59;6144090;23;20005;-75
2023/05/24 06:21:46;;;;;;;0.00;0.00;;;;;;;12.51;68.52;101399.69;6275447;22;20305;-75
2023/05/24 06:24:20;;;;;;;0.00;0.00;;;;;;;12.72;68.16;101396.13;6113700;23;20025;-74
2023/05/24 06:26:49;;;;;;;0.00;0.00;;;;;;;12.90;68.00;101391.38;6144605;23;20020;-74
2023/05/24 06:29:15;;;;;;;0.00;0.00;;;;;;;13.01;67.45;101390.41;6138261;23;20068;-74
2023/05/24 06:31:42;;;;;;;0.00;0.00;;;;;;;13.04;67.08;101384.38;6245764;22;20076;-73
2023/05/24 06:34:07;;;;;;;0.00;0.00;;;;;;;13.20;66.96;101390.84;6241784;22;20067;-75
2023/05/24 06:36:34;;;;;;;0.00;0.00;;;;;;;13.32;67.10;101393.44;6272324;22;20010;-74
2023/05/24 06:39:02;;;;;;;0.00;0.00;;;;;;;13.48;66.50;101401.81;6143297;23;20033;-73
2023/05/24 06:41:28;;;;;;;0.00;0.00;;;;;;;13.66;66.56;101404.19;6269424;22;20385;-73
2023/05/24 06:43:53;;;;;;;0.00;0.00;;;;;;;13.78;65.80;101391.09;6146131;23;20006;-73
2023/05/24 06:46:19;;;;;;;0.00;0.00;;;;;;;13.99;66.04;101391.22;6139292;23;20446;-73
2023/05/24 06:48:44;;;;;;;0.00;0.00;;;;;;;14.17;65.25;101402.88;6273076;22;20085;-73
2023/05/24 06:51:10;;;;;;;0.00;0.00;;;;;;;14.29;64.93;101400.75;6246896;22;20016;-75
2023/05/24 06:53:35;;;;;;;0.00;0.00;;;;;;;14.46;64.70;101401.38;6268838;22;20151;-74
2023/05/24 06:56:00;;;;;;;0.00;0.00;;;;;;;14.66;64.41;101399.84;6275679;22;20014;-74
2023/05/24 06:58:26;;;;;;;0.00;0.00;;;;;;;14.86;63.83;101398.25;6142052;23;20009;-74
2023/05/24 07:00:51;;;;;;;0.00;0.00;;;;;;;15.05;63.28;101410.41;6272939;22;20436;-74
2023/05/24 07:03:17;;;;;;;0.00;0.00;;;;;;;15.18;62.81;101412.63;6115987;23;20084;-72
2023/05/24 07:05:42;;;;;;;0.00;0.00;;;;;;;15.26;62.46;101410.44;6246563;22;20124;-74
2023/05/24 07:08:08;;;;;;;0.00;0.00;;;;;;;15.36;62.11;101418.72;6245266;22;20416;-72
2023/05/24 07:10:33;;;;;;;0.00;0.00;;;;;;;15.52;61.72;101414.88;6142299;23;20032;-74
2023/05/24 07:13:00;;;;;;;0.00;0.00;;;;;;;15.64;61.36;101411.03;6117351;23;20020;-73
2023/05/24 07:15:25;;;;;;;0.00;0.00;;;;;;;15.81;61.15;101417.13;6140249;23;20096;-72
2023/05/24 07:17:51;;;;;;;0.00;0.00;;;;;;;15.92;60.86;101414.34;6118780;23;20033;-75
2023/05/24 07:20:17;;;;;;;0.00;0.00;;;;;;;16.09;60.84;101428.66;6142400;23;20014;-70
2023/05/24 07:22:43;;;;;;;0.00;0.00;;;;;;;16.22;60.10;101436.34;6143734;23;20020;-72
2023/05/24 07:25:09;;;;;;;0.00;0.00;;;;;;;16.30;60.28;101442.41;6142984;23;20439;-73
2023/05/24 07:27:35;;;;;;;0.00;0.00;;;;;;;16.36;58.90;101435.78;6134405;23;20540;-73
2023/05/24 07:30:01;;;;;;;0.00;0.00;;;;;;;16.45;58.84;101434.06;6134430;23;20056;-72
2023/05/24 07:32:27;;;;;;;0.00;0.00;;;;;;;16.50;58.35;101433.22;6139482;23;20033;-71
2023/05/24 07:34:53;;;;;;;0.00;0.00;;;;;;;16.57;57.66;101453.94;6141919;23;20032;-71
2023/05/24 07:37:22;;;;;;;0.00;0.00;;;;;;;16.62;57.41;101450.31;6136198;23;20477;-72
2023/05/24 07:39:48;;;;;;;0.00;0.00;;;;;;;16.70;56.79;101454.41;6116904;22;20006;-73
2023/05/24 07:42:13;;;;;;;0.00;0.00;;;;;;;16.78;56.55;101445.56;6132646;23;20020;-75
2023/05/24 07:44:39;;;;;;;0.00;0.00;;;;;;;16.82;55.81;101443.88;6137150;23;20024;-73
2023/05/24 07:47:05;;;;;;;0.00;0.00;;;;;;;16.92;56.19;101457.69;6247000;22;20104;-75
2023/05/24 07:49:33;;;;;;;0.00;0.00;;;;;;;16.92;55.48;101449.41;6246673;22;20005;-74
2023/05/24 07:51:59;;;;;;;0.00;0.00;;;;;;;16.92;55.05;101448.53;6115062;23;20033;-74
2023/05/24 07:54:25;;;;;;;0.00;0.00;;;;;;;17.07;54.82;101461.47;6245649;22;20012;-74
2023/05/24 07:56:51;;;;;;;0.00;0.00;;;;;;;17.22;55.12;101457.78;6139262;23;20017;-76
2023/05/24 07:59:16;;;;;;;0.00;0.00;;;;;;;17.51;55.08;101460.63;6117530;23;20016;-74
2023/05/24 08:01:42;;;;;;;0.00;0.00;;;;;;;17.65;54.19;101443.38;6138721;23;20037;-75
2023/05/24 08:04:09;;;;;;;0.00;0.00;;;;;;;17.93;53.87;101456.47;6138689;23;20013;-74
2023/05/24 08:06:34;;;;;;;0.00;0.00;;;;;;;18.19;53.30;101463.69;6139206;23;20292;-75
2023/05/24 08:09:04;;;;;;;0.00;0.00;;;;;;;18.48;52.22;101460.88;6142465;23;20014;-73
2023/05/24 08:11:30;;;;;;;0.00;0.00;;;;;;;18.84;51.95;101463.22;6143377;23;20006;-74
2023/05/24 08:13:55;;;;;;;0.00;0.00;;;;;;;19.10;51.45;101460.13;6140264;23;20017;-74
2023/05/24 08:16:21;;;;;;;0.00;0.00;;;;;;;19.27;50.55;101460.44;6247344;22;20348;-74
2023/05/24 08:18:46;;;;;;;0.00;0.00;;;;;;;19.42;50.17;101444.69;6269440;22;20010;-76
2023/05/24 08:21:12;;;;;;;0.00;0.00;;;;;;;19.62;49.77;101444.34;6147265;23;20028;-74
2023/05/24 08:23:37;;;;;;;0.00;0.00;;;;;;;19.70;49.24;101440.91;6142887;23;20313;-73
2023/05/24 08:26:03;;;;;;;0.00;0.00;;;;;;;19.81;48.64;101446.31;6271803;22;20421;-73
2023/05/24 08:28:28;;;;;;;0.00;0.00;;;;;;;19.85;48.31;101445.38;6272662;22;20077;-76
2023/05/24 08:30:54;;;;;;;0.00;0.00;;;;;;;19.95;48.05;101451.91;6142389;23;20425;-74
2023/05/24 08:33:21;;;;;;;0.00;0.00;;;;;;;19.91;47.71;101434.22;6142148;23;20018;-73
2023/05/24 08:35:48;;;;;;;0.00;0.00;;;;;;;19.81;47.38;101426.88;6263566;22;20006;-74
2023/05/24 08:38:13;;;;;;;0.00;0.00;;;;;;;19.73;47.67;101433.94;6142896;23;20009;-75
2023/05/24 08:40:39;;;;;;;0.00;0.00;;;;;;;19.61;47.77;101439.94;6141867;23;20044;-73
2023/05/24 08:43:10;;;;;;;0.00;0.00;;;;;;;19.43;47.11;101438.84;6142578;23;20013;-73
2023/05/24 08:45:37;;;;;;;0.00;0.00;;;;;;;19.25;47.73;101440.50;6141958;23;20039;-74
2023/05/24 08:48:06;;;;;;;0.00;0.00;;;;;;;19.07;47.42;101427.47;6138484;23;20012;-73
2023/05/24 08:50:32;;;;;;;0.00;0.00;;;;;;;18.96;46.89;101444.22;6271715;22;20130;-73
2023/05/24 08:52:58;;;;;;;0.00;0.00;;;;;;;19.13;47.60;101442.91;6144189;23;20025;-72
2023/05/24 08:55:24;;;;;;;0.00;0.00;;;;;;;19.34;47.32;101440.66;6246191;22;20010;-73
2023/05/24 08:57:50;;;;;;;0.00;0.00;;;;;;;19.49;47.39;101445.97;6146764;23;20035;-73
2023/05/24 09:00:16;;;;;;;0.00;0.00;;;;;;;19.59;47.18;101436.63;6142191;23;20005;-72
2023/05/24 09:02:44;;;;;;;0.00;0.00;;;;;;;19.58;47.02;101417.53;6148191;23;20009;-73
2023/05/24 09:05:11;;;;;;;0.00;0.00;;;;;;;19.66;47.17;101423.19;6269107;22;20010;-73
2023/05/24 09:07:37;;;;;;;0.00;0.00;;;;;;;19.74;47.16;101420.88;6149001;23;20051;-73
2023/05/24 09:10:07;;;;;;;0.00;0.00;;;;;;;19.84;46.77;101420.72;6146177;23;20405;-72
2023/05/24 09:12:35;;;;;;;0.00;0.00;;;;;;;19.80;46.39;101417.75;6144368;23;20122;-74
2023/05/24 09:15:01;;;;;;;0.00;0.00;;;;;;;19.78;46.37;101424.69;6142722;23;20005;-72
2023/05/24 09:17:27;;;;;;;0.00;0.00;;;;;;;19.80;46.67;101420.50;6140086;23;20044;-75
2023/05/24 09:19:53;;;;;;;0.00;0.00;;;;;;;19.69;46.22;101417.03;6143012;23;20006;-72
2023/05/24 09:22:24;;;;;;;0.00;0.00;;;;;;;19.58;46.56;101407.28;6267846;22;20084;-73
2023/05/24 09:24:50;;;;;;;0.00;0.00;;;;;;;19.67;46.60;101408.22;6143203;23;20009;-71
2023/05/24 09:27:17;;;;;;;0.00;0.00;;;;;;;19.89;46.83;101412.31;6137814;23;20328;-73
2023/05/24 09:29:45;;;;;;;0.00;0.00;;;;;;;20.01;46.48;101407.06;6142499;23;20054;-72
2023/05/24 09:32:13;;;;;;;0.00;0.00;;;;;;;20.25;46.28;101400.50;6139932;23;20084;-73
2023/05/24 09:34:40;;;;;;;0.00;0.00;;;;;;;20.57;45.88;101412.66;6245082;22;20026;-71
2023/05/24 09:37:12;;;;;;;0.00;0.00;;;;;;;20.83;45.56;101398.25;6117662;23;20017;-72
2023/05/24 09:39:39;;;;;;;0.00;0.00;;;;;;;21.11;44.83;101410.09;6141617;23;19997;-72
2023/05/24 09:42:05;;;;;;;0.00;0.00;;;;;;;21.14;44.81;101403.09;6146516;23;20085;-74
2023/05/24 09:44:30;;;;;;;0.00;0.00;;;;;;;21.27;43.83;101414.19;6140539;23;20010;-73
2023/05/24 09:47:05;;;;;;;0.00;0.00;;;;;;;21.43;43.78;101399.88;6144726;23;20075;-73
2023/05/24 09:49:35;;;;;;;0.00;0.00;;;;;;;21.94;43.29;101408.91;6146160;23;20018;-73
2023/05/24 09:52:00;;;;;;;0.00;0.00;;;;;;;22.35;42.24;101407.81;6140200;23;20001;-73
2023/05/24 09:54:26;;;;;;;0.00;0.00;;;;;;;22.34;40.76;101405.34;6275039;22;20017;-72
2023/05/24 09:56:52;;;;;;;0.00;0.00;;;;;;;22.22;41.16;101403.16;6140728;23;20005;-73
2023/05/24 09:59:18;;;;;;;0.00;0.00;;;;;;;22.17;41.02;101401.34;6144959;23;20028;-72
2023/05/24 10:01:44;;;;;;;0.00;0.00;;;;;;;22.05;41.02;101404.72;6268536;22;20006;-72
2023/05/24 10:04:10;;;;;;;0.00;0.00;;;;;;;22.07;40.93;101402.44;6144881;23;20010;-73
2023/05/24 10:06:37;;;;;;;0.00;0.00;;;;;;;22.12;40.69;101409.81;6144875;23;20014;-73
2023/05/24 10:09:08;;;;;;;0.00;0.00;;;;;;;22.27;40.81;101405.81;6139690;23;20013;-74
2023/05/24 10:11:38;;;;;;;0.00;0.00;;;;;;;22.37;40.49;101396.34;6145784;23;20012;-73
2023/05/24 10:14:06;;;;;;;0.00;0.00;;;;;;;22.51;40.49;101410.16;6140500;23;20051;-71
2023/05/24 10:16:32;;;;;;;0.00;0.00;;;;;;;22.64;39.69;101403.63;6245746;22;20014;-73
2023/05/24 10:18:58;;;;;;;0.00;0.00;;;;;;;22.48;40.17;101395.72;6138290;23;20013;-72
2023/05/24 10:21:30;;;;;;;0.00;0.00;;;;;;;22.74;39.99;101403.34;6274474;22;20013;-72
2023/05/24 10:23:58;;;;;;;0.00;0.00;;;;;;;22.88;39.60;101391.22;6138908;23;20492;-72
2023/05/24 10:26:27;;;;;;;0.00;0.00;;;;;;;22.96;39.22;101382.03;6118482;23;20014;-73
2023/05/24 10:28:55;;;;;;;0.00;0.00;;;;;;;23.18;39.99;101395.03;6141371;23;19997;-72
2023/05/24 10:31:27;;;;;;;0.00;0.00;;;;;;;23.53;40.33;101370.69;6141887;23;20328;-73
2023/05/24 10:33:55;;;;;;;0.00;0.00;;;;;;;24.00;40.06;101385.88;6143412;23;20002;-73
2023/05/24 10:36:21;;;;;;;0.00;0.00;;;;;;;24.35;39.89;101374.53;6145325;23;20002;-72
2023/05/24 10:38:47;;;;;;;0.00;0.00;;;;;;;24.71;38.83;101376.81;6145518;23;20009;-73
2023/05/24 10:41:13;;;;;;;0.00;0.00;;;;;;;24.86;38.33;101378.19;6139937;23;20009;-74
2023/05/24 10:43:39;;;;;;;0.00;0.00;;;;;;;25.23;38.76;101386.78;6146425;23;20006;-74
2023/05/24 10:46:07;;;;;;;0.00;0.00;;;;;;;25.78;36.80;101383.94;6141661;23;20059;-73
2023/05/24 10:48:35;;;;;;;0.00;0.00;;;;;;;26.00;35.56;101381.91;6145459;23;20079;-73
2023/05/24 10:51:21;;;;;;;0.00;0.00;;;;;;;26.69;35.84;101391.38;6118633;23;20010;-73
2023/05/24 10:53:48;;;;;;;0.00;0.00;;;;;;;27.47;34.22;101385.69;6229628;22;20667;-72
2023/05/24 10:56:14;;;;;;;0.00;0.00;;;;;;;28.64;32.95;101380.63;6144496;23;20010;-72
2023/05/24 10:58:56;;;;;;;0.00;0.00;;;;;;;30.20;31.44;101388.13;6115483;23;20005;-74
2023/05/24 11:01:30;;;;;;;0.00;0.00;;;;;;;31.75;29.53;101395.06;6144580;23;20041;-73
2023/05/24 11:04:15;;;;;;;0.00;0.00;;;;;;;33.39;27.01;101388.06;6137988;23;20012;-72
2023/05/24 11:07:10;;;;;;;0.00;0.00;;;;;;;34.67;24.91;101384.88;6140140;23;20119;-73
2023/05/24 11:09:45;;;;;;;0.00;0.00;;;;;;;35.58;23.31;101386.94;6141956;22;20001;-71
2023/05/24 11:12:16;;;;;;;0.00;0.00;;;;;;;36.42;22.31;101381.41;6142225;23;20006;-73
2023/05/24 11:14:48;;;;;;;0.00;0.00;;;;;;;37.90;20.87;101374.59;6144273;22;20420;-71
2023/05/24 11:17:13;;;;;;;0.00;0.00;;;;;;;38.91;18.99;101372.75;6140255;23;20450;-73
2023/05/24 11:20:01;;;;;;;0.00;0.00;;;;;;;39.05;17.75;101366.72;6144993;23;20132;-72
2023/05/24 11:22:27;;;;;;;0.00;0.00;;;;;;;39.93;17.76;101377.78;6139976;23;20157;-72
2023/05/24 11:24:53;;;;;;;0.00;0.00;;;;;;;41.15;16.85;101374.44;6144140;23;20005;-73
2023/05/24 11:27:18;;;;;;;0.00;0.00;;;;;;;42.06;16.69;101362.88;6115030;23;20018;-72